sensor_id;sensor_type;location;lat;lon;timestamp;P1;durP1;ratioP1;P2;durP2;ratioP2
11048;SDS011;5577;42.706;23.160;2023-06-19T00:01:44;6.07;;;4.63;;
11048;SDS011;5577;42.706;23.160;2023-06-19T00:04:28;5.57;;;4.93;;
11048;SDS011;5577;42.706;23.160;2023-06-19T00:07:12;6.73;;;4.70;;
11048;SDS011;5577;42.706;23.160;2023-06-19T00:09:55;5.20;;;4.70;;
11048;SDS011;5577;42.706;23.160;2023-06-19T00:12:39;5.53;;;4.73;;
11048;SDS011;5577;42.706;23.160;2023-06-19T00:15:23;5.40;;;4.90;;
11048;SDS011;5577;42.706;23.160;2023-06-19T00:18:07;6.93;;;5.10;;
11048;SDS011;5577;42.706;23.160;2023-06-19T00:20:51;6.63;;;4.43;;
11048;SDS011;5577;42.706;23.160;2023-06-19T00:23:38;5.20;;;4.70;;
11048;SDS011;5577;42.706;23.160;2023-06-19T00:26:22;5.40;;;4.90;;
11048;SDS011;5577;42.706;23.160;2023-06-19T00:29:07;4.90;;;4.50;;
11048;SDS011;5577;42.706;23.160;2023-06-19T00:31:51;5.27;;;4.40;;
11048;SDS011;5577;42.706;23.160;2023-06-19T00:34:35;5.23;;;4.73;;
11048;SDS011;5577;42.706;23.160;2023-06-19T00:37:20;5.23;;;4.70;;
11048;SDS011;5577;42.706;23.160;2023-06-19T00:40:06;6.20;;;4.90;;
11048;SDS011;5577;42.706;23.160;2023-06-19T00:42:54;5.10;;;4.60;;
11048;SDS011;5577;42.706;23.160;2023-06-19T00:45:38;5.23;;;4.80;;
11048;SDS011;5577;42.706;23.160;2023-06-19T00:48:22;5.43;;;4.83;;
11048;SDS011;5577;42.706;23.160;2023-06-19T00:51:06;5.53;;;4.63;;
11048;SDS011;5577;42.706;23.160;2023-06-19T00:53:50;5.17;;;4.67;;
11048;SDS011;5577;42.706;23.160;2023-06-19T00:56:34;5.13;;;4.53;;
11048;SDS011;5577;42.706;23.160;2023-06-19T00:59:21;5.33;;;4.83;;
11048;SDS011;5577;42.706;23.160;2023-06-19T01:02:05;5.07;;;4.67;;
11048;SDS011;5577;42.706;23.160;2023-06-19T01:04:50;6.57;;;4.90;;
11048;SDS011;5577;42.706;23.160;2023-06-19T01:10:21;4.90;;;4.23;;
11048;SDS011;5577;42.706;23.160;2023-06-19T01:13:10;4.73;;;4.33;;
11048;SDS011;5577;42.706;23.160;2023-06-19T01:16:08;4.97;;;4.53;;
11048;SDS011;5577;42.706;23.160;2023-06-19T01:18:54;4.97;;;4.57;;
11048;SDS011;5577;42.706;23.160;2023-06-19T01:21:39;5.43;;;4.93;;
11048;SDS011;5577;42.706;23.160;2023-06-19T01:24:23;5.70;;;5.20;;
11048;SDS011;5577;42.706;23.160;2023-06-19T01:27:07;7.13;;;4.67;;
11048;SDS011;5577;42.706;23.160;2023-06-19T01:29:51;4.87;;;4.47;;
11048;SDS011;5577;42.706;23.160;2023-06-19T01:35:27;6.10;;;4.27;;
11048;SDS011;5577;42.706;23.160;2023-06-19T01:38:12;5.17;;;4.67;;
11048;SDS011;5577;42.706;23.160;2023-06-19T01:40:57;5.00;;;4.50;;
11048;SDS011;5577;42.706;23.160;2023-06-19T01:43:42;6.07;;;4.70;;
11048;SDS011;5577;42.706;23.160;2023-06-19T01:46:28;6.10;;;4.73;;
11048;SDS011;5577;42.706;23.160;2023-06-19T01:49:12;5.10;;;4.60;;
11048;SDS011;5577;42.706;23.160;2023-06-19T01:51:56;7.63;;;4.63;;
11048;SDS011;5577;42.706;23.160;2023-06-19T01:54:40;5.27;;;4.77;;
11048;SDS011;5577;42.706;23.160;2023-06-19T01:57:24;6.07;;;4.53;;
11048;SDS011;5577;42.706;23.160;2023-06-19T02:00:09;6.93;;;4.77;;
11048;SDS011;5577;42.706;23.160;2023-06-19T02:02:53;5.20;;;4.80;;
11048;SDS011;5577;42.706;23.160;2023-06-19T02:05:37;5.47;;;5.00;;
11048;SDS011;5577;42.706;23.160;2023-06-19T02:08:23;5.60;;;4.73;;
11048;SDS011;5577;42.706;23.160;2023-06-19T02:11:09;5.33;;;4.70;;
11048;SDS011;5577;42.706;23.160;2023-06-19T02:13:53;5.80;;;5.03;;
11048;SDS011;5577;42.706;23.160;2023-06-19T02:16:37;7.17;;;4.83;;
11048;SDS011;5577;42.706;23.160;2023-06-19T02:19:21;5.33;;;4.83;;
11048;SDS011;5577;42.706;23.160;2023-06-19T02:22:05;5.20;;;4.73;;
11048;SDS011;5577;42.706;23.160;2023-06-19T02:24:50;8.57;;;5.37;;
11048;SDS011;5577;42.706;23.160;2023-06-19T02:27:34;5.87;;;4.97;;
11048;SDS011;5577;42.706;23.160;2023-06-19T02:30:18;8.87;;;5.50;;
11048;SDS011;5577;42.706;23.160;2023-06-19T02:33:02;5.60;;;5.10;;
11048;SDS011;5577;42.706;23.160;2023-06-19T02:35:46;6.97;;;5.37;;
11048;SDS011;5577;42.706;23.160;2023-06-19T02:38:32;6.07;;;5.47;;
11048;SDS011;5577;42.706;23.160;2023-06-19T02:41:16;6.43;;;5.30;;
11048;SDS011;5577;42.706;23.160;2023-06-19T02:44:02;5.37;;;4.97;;
11048;SDS011;5577;42.706;23.160;2023-06-19T02:46:46;6.43;;;5.30;;
11048;SDS011;5577;42.706;23.160;2023-06-19T02:49:30;5.97;;;5.37;;
11048;SDS011;5577;42.706;23.160;2023-06-19T02:52:14;5.90;;;5.30;;
11048;SDS011;5577;42.706;23.160;2023-06-19T02:54:57;6.03;;;5.43;;
11048;SDS011;5577;42.706;23.160;2023-06-19T02:57:42;8.03;;;5.67;;
11048;SDS011;5577;42.706;23.160;2023-06-19T03:00:28;7.47;;;5.73;;
11048;SDS011;5577;42.706;23.160;2023-06-19T03:03:12;8.43;;;6.00;;
11048;SDS011;5577;42.706;23.160;2023-06-19T03:05:56;7.17;;;5.67;;
11048;SDS011;5577;42.706;23.160;2023-06-19T03:08:40;6.23;;;5.63;;
11048;SDS011;5577;42.706;23.160;2023-06-19T03:11:24;6.97;;;5.23;;
11048;SDS011;5577;42.706;23.160;2023-06-19T03:14:08;6.10;;;5.50;;
11048;SDS011;5577;42.706;23.160;2023-06-19T03:16:53;8.30;;;6.00;;
11048;SDS011;5577;42.706;23.160;2023-06-19T03:19:37;6.47;;;5.10;;
11048;SDS011;5577;42.706;23.160;2023-06-19T03:22:21;6.07;;;5.50;;
11048;SDS011;5577;42.706;23.160;2023-06-19T03:25:05;5.20;;;4.70;;
11048;SDS011;5577;42.706;23.160;2023-06-19T03:27:49;6.87;;;5.43;;
11048;SDS011;5577;42.706;23.160;2023-06-19T03:30:34;6.87;;;5.30;;
11048;SDS011;5577;42.706;23.160;2023-06-19T03:33:18;12.27;;;5.50;;
11048;SDS011;5577;42.706;23.160;2023-06-19T03:36:02;6.30;;;5.70;;
11048;SDS011;5577;42.706;23.160;2023-06-19T03:38:47;6.33;;;5.70;;
11048;SDS011;5577;42.706;23.160;2023-06-19T03:41:31;6.03;;;4.83;;
11048;SDS011;5577;42.706;23.160;2023-06-19T03:44:15;6.03;;;5.43;;
11048;SDS011;5577;42.706;23.160;2023-06-19T03:46:59;5.87;;;5.30;;
11048;SDS011;5577;42.706;23.160;2023-06-19T03:49:43;6.20;;;5.10;;
11048;SDS011;5577;42.706;23.160;2023-06-19T03:52:27;5.63;;;5.13;;
11048;SDS011;5577;42.706;23.160;2023-06-19T03:55:12;5.87;;;5.00;;
11048;SDS011;5577;42.706;23.160;2023-06-19T03:57:55;5.50;;;5.00;;
11048;SDS011;5577;42.706;23.160;2023-06-19T04:00:40;6.13;;;4.77;;
11048;SDS011;5577;42.706;23.160;2023-06-19T04:03:24;5.83;;;4.90;;
11048;SDS011;5577;42.706;23.160;2023-06-19T04:06:08;5.27;;;4.77;;
11048;SDS011;5577;42.706;23.160;2023-06-19T04:08:52;5.63;;;4.80;;
11048;SDS011;5577;42.706;23.160;2023-06-19T04:11:36;5.30;;;4.80;;
11048;SDS011;5577;42.706;23.160;2023-06-19T04:14:20;5.60;;;4.30;;
11048;SDS011;5577;42.706;23.160;2023-06-19T04:17:06;5.00;;;4.50;;
11048;SDS011;5577;42.706;23.160;2023-06-19T04:19:50;5.70;;;4.83;;
11048;SDS011;5577;42.706;23.160;2023-06-19T04:22:34;5.10;;;4.60;;
11048;SDS011;5577;42.706;23.160;2023-06-19T04:25:18;5.10;;;4.60;;
11048;SDS011;5577;42.706;23.160;2023-06-19T04:28:02;5.00;;;4.53;;
11048;SDS011;5577;42.706;23.160;2023-06-19T04:30:49;5.83;;;4.33;;
11048;SDS011;5577;42.706;23.160;2023-06-19T04:33:33;5.93;;;4.50;;
11048;SDS011;5577;42.706;23.160;2023-06-19T04:36:16;4.87;;;4.37;;
11048;SDS011;5577;42.706;23.160;2023-06-19T04:39:00;5.03;;;4.63;;
11048;SDS011;5577;42.706;23.160;2023-06-19T04:41:45;4.50;;;4.10;;
11048;SDS011;5577;42.706;23.160;2023-06-19T04:44:29;4.87;;;4.37;;
11048;SDS011;5577;42.706;23.160;2023-06-19T04:47:18;4.83;;;4.43;;
11048;SDS011;5577;42.706;23.160;2023-06-19T04:50:03;4.77;;;4.27;;
11048;SDS011;5577;42.706;23.160;2023-06-19T04:52:48;5.10;;;4.70;;
11048;SDS011;5577;42.706;23.160;2023-06-19T04:55:34;4.70;;;4.10;;
11048;SDS011;5577;42.706;23.160;2023-06-19T04:58:17;4.77;;;4.37;;
11048;SDS011;5577;42.706;23.160;2023-06-19T05:01:01;7.10;;;4.87;;
11048;SDS011;5577;42.706;23.160;2023-06-19T05:03:45;4.70;;;4.30;;
11048;SDS011;5577;42.706;23.160;2023-06-19T05:06:29;5.30;;;4.80;;
11048;SDS011;5577;42.706;23.160;2023-06-19T05:09:13;4.97;;;4.00;;
11048;SDS011;5577;42.706;23.160;2023-06-19T05:11:57;6.57;;;4.30;;
11048;SDS011;5577;42.706;23.160;2023-06-19T05:14:41;5.77;;;4.40;;
11048;SDS011;5577;42.706;23.160;2023-06-19T05:17:25;5.07;;;4.57;;
11048;SDS011;5577;42.706;23.160;2023-06-19T05:20:09;5.83;;;4.20;;
11048;SDS011;5577;42.706;23.160;2023-06-19T05:22:55;4.67;;;4.27;;
11048;SDS011;5577;42.706;23.160;2023-06-19T05:25:39;6.80;;;5.00;;
11048;SDS011;5577;42.706;23.160;2023-06-19T05:28:23;5.17;;;4.40;;
11048;SDS011;5577;42.706;23.160;2023-06-19T05:31:07;7.37;;;4.37;;
11048;SDS011;5577;42.706;23.160;2023-06-19T05:33:51;5.20;;;4.30;;
11048;SDS011;5577;42.706;23.160;2023-06-19T05:36:35;5.97;;;4.40;;
11048;SDS011;5577;42.706;23.160;2023-06-19T05:39:19;6.50;;;4.50;;
11048;SDS011;5577;42.706;23.160;2023-06-19T05:42:03;4.43;;;4.03;;
11048;SDS011;5577;42.706;23.160;2023-06-19T05:44:47;5.03;;;4.33;;
11048;SDS011;5577;42.706;23.160;2023-06-19T05:47:31;5.53;;;4.03;;
11048;SDS011;5577;42.706;23.160;2023-06-19T05:50:15;4.80;;;4.27;;
11048;SDS011;5577;42.706;23.160;2023-06-19T05:52:59;4.73;;;4.30;;
11048;SDS011;5577;42.706;23.160;2023-06-19T05:55:43;5.10;;;4.07;;
11048;SDS011;5577;42.706;23.160;2023-06-19T05:58:27;5.43;;;4.60;;
11048;SDS011;5577;42.706;23.160;2023-06-19T06:01:11;5.20;;;3.73;;
11048;SDS011;5577;42.706;23.160;2023-06-19T06:03:56;6.23;;;4.23;;
11048;SDS011;5577;42.706;23.160;2023-06-19T06:06:40;5.40;;;4.40;;
11048;SDS011;5577;42.706;23.160;2023-06-19T06:09:24;4.60;;;4.20;;
11048;SDS011;5577;42.706;23.160;2023-06-19T06:12:08;5.57;;;3.93;;
11048;SDS011;5577;42.706;23.160;2023-06-19T06:14:52;4.83;;;4.33;;
11048;SDS011;5577;42.706;23.160;2023-06-19T06:17:36;4.73;;;4.33;;
11048;SDS011;5577;42.706;23.160;2023-06-19T06:20:20;5.97;;;3.97;;
11048;SDS011;5577;42.706;23.160;2023-06-19T06:23:05;4.90;;;4.50;;
11048;SDS011;5577;42.706;23.160;2023-06-19T06:25:49;4.70;;;4.20;;
11048;SDS011;5577;42.706;23.160;2023-06-19T06:28:33;4.27;;;3.77;;
11048;SDS011;5577;42.706;23.160;2023-06-19T06:31:16;4.17;;;3.83;;
11048;SDS011;5577;42.706;23.160;2023-06-19T06:34:01;4.20;;;3.80;;
11048;SDS011;5577;42.706;23.160;2023-06-19T06:36:45;4.57;;;4.07;;
11048;SDS011;5577;42.706;23.160;2023-06-19T06:39:29;4.53;;;3.90;;
11048;SDS011;5577;42.706;23.160;2023-06-19T06:42:13;4.10;;;3.70;;
11048;SDS011;5577;42.706;23.160;2023-06-19T06:44:57;6.63;;;4.10;;
11048;SDS011;5577;42.706;23.160;2023-06-19T06:47:41;7.90;;;4.23;;
11048;SDS011;5577;42.706;23.160;2023-06-19T06:50:25;4.53;;;3.93;;
11048;SDS011;5577;42.706;23.160;2023-06-19T06:53:09;4.17;;;3.77;;
11048;SDS011;5577;42.706;23.160;2023-06-19T06:55:53;4.37;;;3.83;;
11048;SDS011;5577;42.706;23.160;2023-06-19T06:58:37;4.97;;;4.10;;
11048;SDS011;5577;42.706;23.160;2023-06-19T07:01:22;5.17;;;4.07;;
11048;SDS011;5577;42.706;23.160;2023-06-19T07:04:06;6.47;;;4.03;;
11048;SDS011;5577;42.706;23.160;2023-06-19T07:06:50;4.83;;;4.20;;
11048;SDS011;5577;42.706;23.160;2023-06-19T07:09:34;4.10;;;3.77;;
11048;SDS011;5577;42.706;23.160;2023-06-19T07:12:18;4.30;;;4.00;;
11048;SDS011;5577;42.706;23.160;2023-06-19T07:15:02;4.67;;;4.03;;
11048;SDS011;5577;42.706;23.160;2023-06-19T07:17:47;6.10;;;4.20;;
11048;SDS011;5577;42.706;23.160;2023-06-19T07:20:31;4.23;;;3.83;;
11048;SDS011;5577;42.706;23.160;2023-06-19T07:23:15;4.20;;;3.83;;
11048;SDS011;5577;42.706;23.160;2023-06-19T07:25:59;5.00;;;4.00;;
11048;SDS011;5577;42.706;23.160;2023-06-19T07:28:43;4.13;;;3.77;;
11048;SDS011;5577;42.706;23.160;2023-06-19T07:31:27;4.40;;;4.00;;
11048;SDS011;5577;42.706;23.160;2023-06-19T07:34:11;5.43;;;3.97;;
11048;SDS011;5577;42.706;23.160;2023-06-19T07:36:55;5.00;;;4.20;;
11048;SDS011;5577;42.706;23.160;2023-06-19T07:39:39;6.20;;;3.97;;
11048;SDS011;5577;42.706;23.160;2023-06-19T07:42:23;4.37;;;3.97;;
11048;SDS011;5577;42.706;23.160;2023-06-19T07:45:08;4.63;;;4.13;;
11048;SDS011;5577;42.706;23.160;2023-06-19T07:47:55;4.37;;;3.97;;
11048;SDS011;5577;42.706;23.160;2023-06-19T07:50:40;4.40;;;4.00;;
11048;SDS011;5577;42.706;23.160;2023-06-19T07:53:24;4.20;;;3.73;;
11048;SDS011;5577;42.706;23.160;2023-06-19T07:56:08;4.30;;;3.90;;
11048;SDS011;5577;42.706;23.160;2023-06-19T07:58:52;6.30;;;4.50;;
11048;SDS011;5577;42.706;23.160;2023-06-19T08:01:36;4.63;;;4.10;;
11048;SDS011;5577;42.706;23.160;2023-06-19T08:04:20;5.07;;;4.10;;
11048;SDS011;5577;42.706;23.160;2023-06-19T08:07:04;4.37;;;3.97;;
11048;SDS011;5577;42.706;23.160;2023-06-19T08:09:49;4.97;;;3.90;;
11048;SDS011;5577;42.706;23.160;2023-06-19T08:12:32;4.90;;;4.40;;
11048;SDS011;5577;42.706;23.160;2023-06-19T08:15:16;4.97;;;4.20;;
11048;SDS011;5577;42.706;23.160;2023-06-19T08:18:00;4.67;;;3.83;;
11048;SDS011;5577;42.706;23.160;2023-06-19T08:20:44;4.77;;;4.37;;
11048;SDS011;5577;42.706;23.160;2023-06-19T08:23:28;6.90;;;4.10;;
11048;SDS011;5577;42.706;23.160;2023-06-19T08:26:12;5.80;;;4.10;;
11048;SDS011;5577;42.706;23.160;2023-06-19T08:28:57;4.17;;;3.60;;
11048;SDS011;5577;42.706;23.160;2023-06-19T08:31:41;4.03;;;3.70;;
11048;SDS011;5577;42.706;23.160;2023-06-19T08:34:25;6.93;;;4.03;;
11048;SDS011;5577;42.706;23.160;2023-06-19T08:37:09;5.73;;;4.00;;
11048;SDS011;5577;42.706;23.160;2023-06-19T08:39:53;6.90;;;4.00;;
11048;SDS011;5577;42.706;23.160;2023-06-19T08:42:39;5.23;;;3.83;;
11048;SDS011;5577;42.706;23.160;2023-06-19T08:45:25;4.30;;;3.90;;
11048;SDS011;5577;42.706;23.160;2023-06-19T08:48:13;4.60;;;4.20;;
11048;SDS011;5577;42.706;23.160;2023-06-19T08:50:57;5.40;;;3.90;;
11048;SDS011;5577;42.706;23.160;2023-06-19T08:53:45;5.00;;;3.93;;
11048;SDS011;5577;42.706;23.160;2023-06-19T08:56:31;4.40;;;4.10;;
11048;SDS011;5577;42.706;23.160;2023-06-19T08:59:21;4.30;;;4.00;;
11048;SDS011;5577;42.706;23.160;2023-06-19T09:02:05;5.17;;;4.30;;
11048;SDS011;5577;42.706;23.160;2023-06-19T09:04:50;4.50;;;4.10;;
11048;SDS011;5577;42.706;23.160;2023-06-19T09:07:34;4.50;;;3.80;;
11048;SDS011;5577;42.706;23.160;2023-06-19T09:10:18;4.33;;;3.93;;
11048;SDS011;5577;42.706;23.160;2023-06-19T09:13:03;4.27;;;3.77;;
11048;SDS011;5577;42.706;23.160;2023-06-19T09:15:47;4.77;;;4.37;;
11048;SDS011;5577;42.706;23.160;2023-06-19T09:18:44;5.70;;;4.40;;
11048;SDS011;5577;42.706;23.160;2023-06-19T09:21:32;5.53;;;4.47;;
11048;SDS011;5577;42.706;23.160;2023-06-19T09:24:19;6.60;;;4.10;;
11048;SDS011;5577;42.706;23.160;2023-06-19T09:27:10;5.60;;;3.93;;
11048;SDS011;5577;42.706;23.160;2023-06-19T09:29:57;4.97;;;4.50;;
11048;SDS011;5577;42.706;23.160;2023-06-19T09:32:41;7.23;;;4.47;;
11048;SDS011;5577;42.706;23.160;2023-06-19T09:35:25;4.87;;;4.30;;
11048;SDS011;5577;42.706;23.160;2023-06-19T09:38:09;5.13;;;4.63;;
11048;SDS011;5577;42.706;23.160;2023-06-19T09:40:55;4.87;;;4.40;;
11048;SDS011;5577;42.706;23.160;2023-06-19T09:43:46;4.53;;;4.13;;
11048;SDS011;5577;42.706;23.160;2023-06-19T09:46:30;4.10;;;3.80;;
11048;SDS011;5577;42.706;23.160;2023-06-19T09:49:19;5.13;;;4.27;;
11048;SDS011;5577;42.706;23.160;2023-06-19T09:52:07;5.40;;;3.90;;
11048;SDS011;5577;42.706;23.160;2023-06-19T09:54:52;5.20;;;4.40;;
11048;SDS011;5577;42.706;23.160;2023-06-19T09:57:37;5.27;;;4.10;;
11048;SDS011;5577;42.706;23.160;2023-06-19T10:00:22;4.30;;;3.87;;
11048;SDS011;5577;42.706;23.160;2023-06-19T10:03:13;5.67;;;4.17;;
11048;SDS011;5577;42.706;23.160;2023-06-19T10:05:58;4.83;;;4.43;;
11048;SDS011;5577;42.706;23.160;2023-06-19T10:08:44;5.27;;;4.13;;
11048;SDS011;5577;42.706;23.160;2023-06-19T10:11:38;4.80;;;4.40;;
11048;SDS011;5577;42.706;23.160;2023-06-19T10:14:28;4.87;;;4.00;;
11048;SDS011;5577;42.706;23.160;2023-06-19T10:17:12;4.60;;;4.10;;
11048;SDS011;5577;42.706;23.160;2023-06-19T10:19:56;4.70;;;4.40;;
11048;SDS011;5577;42.706;23.160;2023-06-19T10:22:49;6.57;;;4.40;;
11048;SDS011;5577;42.706;23.160;2023-06-19T10:25:36;5.47;;;3.87;;
11048;SDS011;5577;42.706;23.160;2023-06-19T10:28:29;4.40;;;4.03;;
11048;SDS011;5577;42.706;23.160;2023-06-19T10:31:15;5.30;;;4.43;;
11048;SDS011;5577;42.706;23.160;2023-06-19T10:34:02;4.30;;;4.00;;
11048;SDS011;5577;42.706;23.160;2023-06-19T10:36:47;5.20;;;4.00;;
11048;SDS011;5577;42.706;23.160;2023-06-19T10:39:31;5.80;;;4.37;;
11048;SDS011;5577;42.706;23.160;2023-06-19T10:42:16;4.27;;;3.87;;
11048;SDS011;5577;42.706;23.160;2023-06-19T10:45:04;4.60;;;4.20;;
11048;SDS011;5577;42.706;23.160;2023-06-19T10:47:49;4.77;;;4.30;;
11048;SDS011;5577;42.706;23.160;2023-06-19T10:50:35;4.93;;;4.53;;
11048;SDS011;5577;42.706;23.160;2023-06-19T10:53:32;4.40;;;4.10;;
11048;SDS011;5577;42.706;23.160;2023-06-19T10:56:16;4.87;;;4.30;;
11048;SDS011;5577;42.706;23.160;2023-06-19T10:59:08;4.87;;;4.47;;
11048;SDS011;5577;42.706;23.160;2023-06-19T11:01:54;5.10;;;4.50;;
11048;SDS011;5577;42.706;23.160;2023-06-19T11:04:38;5.13;;;4.63;;
11048;SDS011;5577;42.706;23.160;2023-06-19T11:07:23;4.77;;;4.30;;
11048;SDS011;5577;42.706;23.160;2023-06-19T11:10:07;6.20;;;4.33;;
11048;SDS011;5577;42.706;23.160;2023-06-19T11:13:02;5.00;;;4.60;;
11048;SDS011;5577;42.706;23.160;2023-06-19T11:15:47;4.50;;;4.10;;
11048;SDS011;5577;42.706;23.160;2023-06-19T11:18:35;5.23;;;4.30;;
11048;SDS011;5577;42.706;23.160;2023-06-19T11:21:20;4.17;;;3.77;;
11048;SDS011;5577;42.706;23.160;2023-06-19T11:24:04;4.57;;;4.17;;
11048;SDS011;5577;42.706;23.160;2023-06-19T11:26:50;5.90;;;3.90;;
11048;SDS011;5577;42.706;23.160;2023-06-19T11:29:34;6.60;;;3.93;;
11048;SDS011;5577;42.706;23.160;2023-06-19T11:32:20;5.00;;;4.30;;
11048;SDS011;5577;42.706;23.160;2023-06-19T11:35:09;5.70;;;3.90;;
11048;SDS011;5577;42.706;23.160;2023-06-19T11:37:56;4.30;;;3.90;;
11048;SDS011;5577;42.706;23.160;2023-06-19T11:40:40;4.50;;;4.20;;
11048;SDS011;5577;42.706;23.160;2023-06-19T11:43:26;5.30;;;4.27;;
11048;SDS011;5577;42.706;23.160;2023-06-19T11:46:14;5.30;;;4.53;;
11048;SDS011;5577;42.706;23.160;2023-06-19T11:49:12;4.77;;;4.37;;
11048;SDS011;5577;42.706;23.160;2023-06-19T11:51:58;4.80;;;4.30;;
11048;SDS011;5577;42.706;23.160;2023-06-19T11:54:41;4.53;;;4.13;;
11048;SDS011;5577;42.706;23.160;2023-06-19T11:57:28;4.90;;;4.40;;
11048;SDS011;5577;42.706;23.160;2023-06-19T12:00:15;5.37;;;4.43;;
11048;SDS011;5577;42.706;23.160;2023-06-19T12:03:01;4.77;;;4.27;;
11048;SDS011;5577;42.706;23.160;2023-06-19T12:05:45;4.93;;;4.53;;
11048;SDS011;5577;42.706;23.160;2023-06-19T12:08:28;4.97;;;4.47;;
11048;SDS011;5577;42.706;23.160;2023-06-19T12:11:12;4.50;;;4.10;;
11048;SDS011;5577;42.706;23.160;2023-06-19T12:13:56;4.83;;;4.40;;
11048;SDS011;5577;42.706;23.160;2023-06-19T12:16:41;5.33;;;4.50;;
11048;SDS011;5577;42.706;23.160;2023-06-19T12:19:25;5.63;;;4.50;;
11048;SDS011;5577;42.706;23.160;2023-06-19T12:22:10;4.67;;;3.90;;
11048;SDS011;5577;42.706;23.160;2023-06-19T12:24:54;4.90;;;4.40;;
11048;SDS011;5577;42.706;23.160;2023-06-19T12:27:38;4.83;;;4.43;;
11048;SDS011;5577;42.706;23.160;2023-06-19T12:30:22;5.30;;;4.80;;
11048;SDS011;5577;42.706;23.160;2023-06-19T12:33:07;5.60;;;4.40;;
11048;SDS011;5577;42.706;23.160;2023-06-19T12:35:51;8.50;;;4.27;;
11048;SDS011;5577;42.706;23.160;2023-06-19T12:38:35;5.33;;;4.17;;
11048;SDS011;5577;42.706;23.160;2023-06-19T12:41:21;4.57;;;4.00;;
11048;SDS011;5577;42.706;23.160;2023-06-19T12:44:05;4.67;;;4.27;;
11048;SDS011;5577;42.706;23.160;2023-06-19T12:46:49;4.37;;;3.97;;
11048;SDS011;5577;42.706;23.160;2023-06-19T12:49:33;6.10;;;4.30;;
11048;SDS011;5577;42.706;23.160;2023-06-19T12:52:16;4.30;;;4.00;;
11048;SDS011;5577;42.706;23.160;2023-06-19T12:55:00;4.77;;;4.30;;
11048;SDS011;5577;42.706;23.160;2023-06-19T12:57:45;4.83;;;4.37;;
11048;SDS011;5577;42.706;23.160;2023-06-19T13:00:29;3.80;;;3.57;;
11048;SDS011;5577;42.706;23.160;2023-06-19T13:03:13;4.27;;;3.90;;
11048;SDS011;5577;42.706;23.160;2023-06-19T13:05:57;4.47;;;4.07;;
11048;SDS011;5577;42.706;23.160;2023-06-19T13:08:41;4.63;;;3.70;;
11048;SDS011;5577;42.706;23.160;2023-06-19T13:11:25;4.67;;;4.33;;
11048;SDS011;5577;42.706;23.160;2023-06-19T13:14:09;3.90;;;3.60;;
11048;SDS011;5577;42.706;23.160;2023-06-19T13:16:53;5.23;;;4.17;;
11048;SDS011;5577;42.706;23.160;2023-06-19T13:19:37;4.10;;;3.80;;
11048;SDS011;5577;42.706;23.160;2023-06-19T13:22:21;7.23;;;4.00;;
11048;SDS011;5577;42.706;23.160;2023-06-19T13:25:05;5.23;;;4.17;;
11048;SDS011;5577;42.706;23.160;2023-06-19T13:27:49;4.00;;;3.60;;
11048;SDS011;5577;42.706;23.160;2023-06-19T13:30:33;4.43;;;4.00;;
11048;SDS011;5577;42.706;23.160;2023-06-19T13:33:17;4.63;;;4.23;;
11048;SDS011;5577;42.706;23.160;2023-06-19T13:36:01;4.43;;;3.97;;
11048;SDS011;5577;42.706;23.160;2023-06-19T13:38:45;5.00;;;4.40;;
11048;SDS011;5577;42.706;23.160;2023-06-19T13:41:30;4.03;;;3.73;;
11048;SDS011;5577;42.706;23.160;2023-06-19T13:44:17;4.63;;;4.17;;
11048;SDS011;5577;42.706;23.160;2023-06-19T13:47:02;5.33;;;4.10;;
11048;SDS011;5577;42.706;23.160;2023-06-19T13:49:47;4.10;;;3.80;;
11048;SDS011;5577;42.706;23.160;2023-06-19T13:52:31;5.70;;;4.20;;
11048;SDS011;5577;42.706;23.160;2023-06-19T13:55:15;4.73;;;4.30;;
11048;SDS011;5577;42.706;23.160;2023-06-19T13:57:59;6.10;;;4.40;;
11048;SDS011;5577;42.706;23.160;2023-06-19T14:00:43;5.90;;;3.77;;
11048;SDS011;5577;42.706;23.160;2023-06-19T14:03:27;4.57;;;4.07;;
11048;SDS011;5577;42.706;23.160;2023-06-19T14:06:11;4.70;;;4.30;;
11048;SDS011;5577;42.706;23.160;2023-06-19T14:08:56;5.63;;;5.13;;
11048;SDS011;5577;42.706;23.160;2023-06-19T14:11:40;5.87;;;4.83;;
11048;SDS011;5577;42.706;23.160;2023-06-19T14:14:23;6.53;;;4.30;;
11048;SDS011;5577;42.706;23.160;2023-06-19T14:17:07;5.47;;;4.60;;
11048;SDS011;5577;42.706;23.160;2023-06-19T14:19:51;6.03;;;4.90;;
11048;SDS011;5577;42.706;23.160;2023-06-19T14:22:36;5.10;;;4.70;;
11048;SDS011;5577;42.706;23.160;2023-06-19T14:25:19;5.00;;;4.20;;
11048;SDS011;5577;42.706;23.160;2023-06-19T14:28:04;4.90;;;4.03;;
11048;SDS011;5577;42.706;23.160;2023-06-19T14:30:51;4.50;;;4.10;;
11048;SDS011;5577;42.706;23.160;2023-06-19T14:33:35;5.00;;;4.50;;
11048;SDS011;5577;42.706;23.160;2023-06-19T14:36:20;5.27;;;4.60;;
11048;SDS011;5577;42.706;23.160;2023-06-19T14:39:04;4.07;;;3.77;;
11048;SDS011;5577;42.706;23.160;2023-06-19T14:41:49;5.20;;;4.70;;
11048;SDS011;5577;42.706;23.160;2023-06-19T14:44:33;4.60;;;4.20;;
11048;SDS011;5577;42.706;23.160;2023-06-19T14:47:16;5.53;;;4.67;;
11048;SDS011;5577;42.706;23.160;2023-06-19T14:50:00;4.57;;;4.17;;
11048;SDS011;5577;42.706;23.160;2023-06-19T14:52:44;4.90;;;4.50;;
11048;SDS011;5577;42.706;23.160;2023-06-19T14:55:28;5.30;;;4.80;;
11048;SDS011;5577;42.706;23.160;2023-06-19T14:58:13;6.13;;;4.67;;
11048;SDS011;5577;42.706;23.160;2023-06-19T15:00:57;7.37;;;4.73;;
11048;SDS011;5577;42.706;23.160;2023-06-19T15:03:41;5.60;;;5.10;;
11048;SDS011;5577;42.706;23.160;2023-06-19T15:06:25;5.67;;;5.00;;
11048;SDS011;5577;42.706;23.160;2023-06-19T15:09:09;5.80;;;5.13;;
11048;SDS011;5577;42.706;23.160;2023-06-19T15:11:53;5.10;;;4.70;;
11048;SDS011;5577;42.706;23.160;2023-06-19T15:14:37;5.30;;;4.57;;
11048;SDS011;5577;42.706;23.160;2023-06-19T15:17:22;6.27;;;4.77;;
11048;SDS011;5577;42.706;23.160;2023-06-19T15:20:06;4.80;;;4.40;;
11048;SDS011;5577;42.706;23.160;2023-06-19T15:22:52;5.00;;;4.60;;
11048;SDS011;5577;42.706;23.160;2023-06-19T15:25:36;5.20;;;4.80;;
11048;SDS011;5577;42.706;23.160;2023-06-19T15:28:20;5.63;;;4.70;;
11048;SDS011;5577;42.706;23.160;2023-06-19T15:31:04;5.20;;;4.63;;
11048;SDS011;5577;42.706;23.160;2023-06-19T15:33:49;5.20;;;4.70;;
11048;SDS011;5577;42.706;23.160;2023-06-19T15:36:33;5.30;;;4.80;;
11048;SDS011;5577;42.706;23.160;2023-06-19T15:39:17;5.93;;;4.90;;
11048;SDS011;5577;42.706;23.160;2023-06-19T15:42:01;5.90;;;4.70;;
11048;SDS011;5577;42.706;23.160;2023-06-19T15:44:46;6.87;;;5.13;;
11048;SDS011;5577;42.706;23.160;2023-06-19T15:47:30;5.10;;;4.60;;
11048;SDS011;5577;42.706;23.160;2023-06-19T15:50:17;5.57;;;5.00;;
11048;SDS011;5577;42.706;23.160;2023-06-19T15:53:02;5.57;;;5.07;;
11048;SDS011;5577;42.706;23.160;2023-06-19T15:55:46;5.50;;;5.00;;
11048;SDS011;5577;42.706;23.160;2023-06-19T15:58:30;5.50;;;4.90;;
11048;SDS011;5577;42.706;23.160;2023-06-19T16:01:14;6.03;;;5.20;;
11048;SDS011;5577;42.706;23.160;2023-06-19T16:03:57;5.87;;;5.27;;
11048;SDS011;5577;42.706;23.160;2023-06-19T16:06:42;5.30;;;4.80;;
11048;SDS011;5577;42.706;23.160;2023-06-19T16:09:28;6.73;;;5.17;;
11048;SDS011;5577;42.706;23.160;2023-06-19T16:12:12;7.33;;;5.23;;
11048;SDS011;5577;42.706;23.160;2023-06-19T16:14:56;6.17;;;5.67;;
11048;SDS011;5577;42.706;23.160;2023-06-19T16:17:40;6.23;;;5.67;;
11048;SDS011;5577;42.706;23.160;2023-06-19T16:20:24;5.97;;;5.20;;
11048;SDS011;5577;42.706;23.160;2023-06-19T16:23:08;5.50;;;5.10;;
11048;SDS011;5577;42.706;23.160;2023-06-19T16:25:52;5.60;;;5.10;;
11048;SDS011;5577;42.706;23.160;2023-06-19T16:28:36;5.17;;;4.67;;
11048;SDS011;5577;42.706;23.160;2023-06-19T16:31:20;5.80;;;5.20;;
11048;SDS011;5577;42.706;23.160;2023-06-19T16:34:04;5.47;;;4.97;;
11048;SDS011;5577;42.706;23.160;2023-06-19T16:36:49;5.70;;;5.20;;
11048;SDS011;5577;42.706;23.160;2023-06-19T16:39:34;9.00;;;5.70;;